Black Lake, Canada
Current Conditions -  °F | °C
As of 12:04 PM on Monday 24 Nov 2014 (Local Time) from CYSC Reporting Station
Overcast Overcast  
Wind Chill: 54°   Ceiling: 2400
Heat Index: 54°   Visibility: 9mi
Dew Point: 50°   Wind: 3mph
Humidity: 88%   Direction: 150°SSE
Pressure: 29.48"   Gusts: NA
Location:  46.03°N, 71.37°W
Report Text: CYSC 241704Z AUTO 15003KT 120V200 9SM OVC024 12/10 A2948 RMK SLP989 DENSITY ALT 1100FT
Loading
Personal Weather Stations






























Interactive Weather Map New forecast layout! Learn more

10-Day Weather Forecast

Advertisements
Track Severe Weather on mobile